Time;durP1;ratioP1;P1;durP2;ratioP2;P2;SDS_P1;SDS_P2;PMS_P1;PMS_P2;Temp;Humidity;BMP_temperature;BMP_pressure;BME280_temperature;BME280_humidity;BME280_pressure;Samples;Min_cycle;Max_cycle;Signal;HPM_P1;HPM_P2
2021/10/14 00:00:22;;;;;;;21.80;10.13;;;13.10;99.90;;;;;;4968977;28;20199;-82
2021/10/14 00:02:48;;;;;;;19.37;10.93;;;13.20;99.90;;;;;;4971741;28;20191;-82
2021/10/14 00:05:16;;;;;;;19.37;10.37;;;13.30;99.90;;;;;;4969929;28;20797;-82
2021/10/14 00:07:42;;;;;;;23.50;10.90;;;13.30;99.90;;;;;;4971198;28;20231;-82
2021/10/14 00:10:08;;;;;;;18.03;10.73;;;13.30;99.90;;;;;;4971817;28;20180;-82
2021/10/14 00:12:34;;;;;;;24.63;11.00;;;13.30;99.90;;;;;;4958593;28;20207;-82
2021/10/14 00:15:01;;;;;;;23.13;11.00;;;13.30;99.90;;;;;;4956280;28;20610;-82
2021/10/14 00:17:27;;;;;;;20.43;11.20;;;13.30;99.90;;;;;;4983417;28;20191;-83
2021/10/14 00:19:53;;;;;;;21.13;10.97;;;13.30;99.90;;;;;;4958741;28;20222;-82
2021/10/14 00:22:19;;;;;;;24.20;11.13;;;13.30;99.90;;;;;;4954170;28;20216;-83
2021/10/14 00:24:44;;;;;;;18.90;10.93;;;13.30;99.90;;;;;;4975538;28;20183;-82
2021/10/14 00:27:11;;;;;;;19.20;10.63;;;13.30;99.90;;;;;;4987324;28;20617;-82
2021/10/14 00:29:37;;;;;;;25.13;11.70;;;13.40;99.90;;;;;;4956638;28;20576;-82
2021/10/14 00:32:03;;;;;;;26.37;11.63;;;13.30;99.90;;;;;;4970266;28;20193;-81
2021/10/14 00:34:29;;;;;;;21.40;10.63;;;13.30;99.90;;;;;;4956740;28;20557;-82
2021/10/14 00:36:54;;;;;;;26.23;10.77;;;13.20;99.90;;;;;;4968576;28;20243;-82
2021/10/14 00:39:20;;;;;;;25.53;11.27;;;13.20;99.90;;;;;;4960486;28;20206;-82
2021/10/14 00:41:46;;;;;;;22.43;11.20;;;13.20;99.90;;;;;;4958274;28;20183;-82
2021/10/14 00:44:11;;;;;;;20.63;10.70;;;13.20;99.90;;;;;;4967196;28;20184;-82
2021/10/14 00:46:37;;;;;;;21.93;10.53;;;13.20;99.90;;;;;;4956736;28;20188;-81
2021/10/14 00:49:03;;;;;;;20.10;10.40;;;13.10;99.90;;;;;;4968647;28;20199;-81
2021/10/14 00:51:29;;;;;;;26.30;11.23;;;13.10;99.90;;;;;;4954641;28;20230;-82
2021/10/14 00:53:55;;;;;;;25.33;11.63;;;13.10;99.90;;;;;;4959484;28;20196;-82
2021/10/14 00:56:22;;;;;;;23.73;11.63;;;13.10;99.90;;;;;;4985054;28;20194;-82
2021/10/14 00:58:48;;;;;;;31.57;11.90;;;13.20;99.90;;;;;;4971642;28;20218;-82
2021/10/14 01:01:14;;;;;;;26.67;11.27;;;13.20;99.90;;;;;;4986890;28;20189;-81
2021/10/14 01:03:39;;;;;;;25.07;12.40;;;13.20;99.90;;;;;;4960433;28;20190;-81
2021/10/14 01:06:05;;;;;;;23.20;11.13;;;13.20;99.90;;;;;;4956665;28;20191;-81
2021/10/14 01:08:31;;;;;;;23.00;11.40;;;13.20;99.90;;;;;;4959072;28;20207;-81
2021/10/14 01:10:57;;;;;;;19.60;10.80;;;13.20;99.90;;;;;;4957574;28;20203;-81
2021/10/14 01:13:23;;;;;;;19.73;10.67;;;13.10;99.90;;;;;;4962092;28;20278;-81
2021/10/14 01:15:48;;;;;;;22.77;10.93;;;13.10;99.90;;;;;;4958922;28;20541;-82
2021/10/14 01:18:14;;;;;;;24.47;11.13;;;13.20;99.90;;;;;;4955643;28;20640;-82
2021/10/14 01:20:40;;;;;;;19.83;10.33;;;13.20;99.90;;;;;;4968983;28;20191;-81
2021/10/14 01:23:06;;;;;;;19.97;11.33;;;13.20;99.90;;;;;;4971409;28;20183;-82
2021/10/14 01:25:32;;;;;;;21.67;10.90;;;13.20;99.90;;;;;;4993400;28;20244;-82
2021/10/14 01:27:58;;;;;;;21.47;11.27;;;13.20;99.90;;;;;;4971188;28;20206;-81
2021/10/14 01:30:24;;;;;;;27.70;11.17;;;13.20;99.90;;;;;;4985794;28;20181;-81
2021/10/14 01:32:50;;;;;;;22.57;10.67;;;13.20;99.90;;;;;;4972780;28;20234;-81
2021/10/14 01:35:18;;;;;;;17.70;9.97;;;13.20;99.90;;;;;;4957974;28;20237;-82
2021/10/14 01:37:44;;;;;;;25.83;11.43;;;13.10;99.90;;;;;;4991220;28;20188;-81
2021/10/14 01:40:11;;;;;;;23.23;10.60;;;13.10;99.90;;;;;;4969639;28;20200;-81
2021/10/14 01:42:37;;;;;;;19.13;10.43;;;13.10;99.90;;;;;;4969030;28;20186;-81
2021/10/14 01:45:04;;;;;;;19.10;10.67;;;13.10;99.90;;;;;;4974273;28;20219;-81
2021/10/14 01:47:31;;;;;;;23.23;11.50;;;13.10;99.90;;;;;;4990956;28;20215;-83
2021/10/14 01:49:57;;;;;;;22.00;10.70;;;13.20;99.90;;;;;;4970040;28;20219;-81
2021/10/14 01:52:23;;;;;;;24.83;11.00;;;13.10;99.90;;;;;;4993283;28;20175;-82
2021/10/14 01:54:49;;;;;;;21.73;11.43;;;13.10;99.90;;;;;;4975000;28;20178;-82
2021/10/14 01:57:15;;;;;;;23.50;11.80;;;13.10;99.90;;;;;;4976571;28;20286;-82
2021/10/14 01:59:41;;;;;;;21.90;11.03;;;13.10;99.90;;;;;;4961700;28;20198;-82
2021/10/14 02:02:07;;;;;;;20.37;10.50;;;13.10;99.90;;;;;;4976460;28;20188;-82
2021/10/14 02:04:32;;;;;;;20.50;10.33;;;13.10;99.90;;;;;;4957564;28;20195;-82
2021/10/14 02:06:58;;;;;;;18.77;10.93;;;13.10;99.90;;;;;;4960947;28;20190;-82
2021/10/14 02:09:24;;;;;;;21.87;10.40;;;13.00;99.90;;;;;;4956987;28;20182;-82
2021/10/14 02:11:50;;;;;;;21.13;10.63;;;13.00;99.90;;;;;;4973727;28;20262;-82
2021/10/14 02:14:16;;;;;;;26.40;10.33;;;13.00;99.90;;;;;;4973679;28;20187;-82
2021/10/14 02:16:42;;;;;;;21.10;9.80;;;13.00;99.90;;;;;;4974199;28;20175;-82
2021/10/14 02:19:08;;;;;;;19.90;9.20;;;13.10;99.90;;;;;;4977780;28;20208;-81
2021/10/14 02:21:33;;;;;;;19.27;9.93;;;13.10;99.90;;;;;;4959301;28;20187;-82
2021/10/14 02:23:59;;;;;;;22.90;10.27;;;13.00;99.90;;;;;;4977111;28;20187;-81
2021/10/14 02:26:25;;;;;;;18.47;9.30;;;13.00;99.90;;;;;;4990842;28;20177;-82
2021/10/14 02:28:50;;;;;;;21.53;10.00;;;13.00;99.90;;;;;;4961977;28;20683;-82
2021/10/14 02:31:16;;;;;;;18.80;9.13;;;13.00;99.90;;;;;;4969587;28;20203;-81
2021/10/14 02:33:42;;;;;;;23.53;9.40;;;13.00;99.90;;;;;;4957027;28;20191;-81
2021/10/14 02:36:08;;;;;;;18.53;8.63;;;13.00;99.90;;;;;;4977395;28;20218;-82
2021/10/14 02:38:34;;;;;;;20.27;9.50;;;13.00;99.90;;;;;;4975267;28;20207;-82
2021/10/14 02:41:00;;;;;;;19.87;9.90;;;13.10;99.90;;;;;;4963018;28;20179;-82
2021/10/14 02:43:25;;;;;;;20.97;9.47;;;13.10;99.90;;;;;;4960068;28;20183;-82
2021/10/14 02:45:51;;;;;;;21.30;9.23;;;13.10;99.90;;;;;;4956956;28;20182;-82
2021/10/14 02:48:17;;;;;;;23.50;10.00;;;13.00;99.90;;;;;;4959155;28;20202;-81
2021/10/14 02:50:43;;;;;;;25.17;9.77;;;13.00;99.90;;;;;;4987985;28;20663;-82
2021/10/14 02:53:08;;;;;;;20.63;9.43;;;13.00;99.90;;;;;;4973300;28;20215;-81
2021/10/14 02:55:34;;;;;;;18.57;9.13;;;12.90;99.90;;;;;;4971706;28;20187;-82
2021/10/14 02:58:00;;;;;;;21.77;9.60;;;13.00;99.90;;;;;;4993250;28;20568;-82
2021/10/14 03:00:26;;;;;;;19.07;9.73;;;13.00;99.90;;;;;;4976867;28;20187;-81
2021/10/14 03:02:51;;;;;;;20.87;8.13;;;13.00;99.90;;;;;;4969054;28;20235;-82
2021/10/14 03:05:17;;;;;;;20.17;9.43;;;13.10;99.90;;;;;;4976902;28;20209;-82
2021/10/14 03:07:43;;;;;;;21.10;8.97;;;13.10;99.90;;;;;;4970499;28;20218;-82
2021/10/14 03:10:10;;;;;;;24.83;9.13;;;13.00;99.90;;;;;;4977217;28;20986;-82
2021/10/14 03:12:35;;;;;;;25.70;10.10;;;13.00;99.90;;;;;;4989500;28;20179;-82
2021/10/14 03:15:03;;;;;;;21.10;9.33;;;13.00;99.90;;;;;;4973700;28;20292;-81
2021/10/14 03:17:28;;;;;;;23.13;8.70;;;12.90;99.90;;;;;;4974870;28;20191;-80
2021/10/14 03:19:54;;;;;;;20.63;9.10;;;12.90;99.90;;;;;;4972516;28;20551;-80
2021/10/14 03:22:20;;;;;;;19.80;9.53;;;12.90;99.90;;;;;;4975976;28;20201;-81
2021/10/14 03:24:46;;;;;;;19.10;9.17;;;12.90;99.90;;;;;;4972280;28;20187;-81
2021/10/14 03:27:11;;;;;;;19.57;9.47;;;12.70;99.90;;;;;;4961200;28;20215;-81
2021/10/14 03:29:37;;;;;;;17.57;9.27;;;12.70;99.90;;;;;;4975331;28;20198;-80
2021/10/14 03:32:03;;;;;;;16.37;8.80;;;12.70;99.90;;;;;;4970769;28;20191;-81
2021/10/14 03:34:29;;;;;;;18.93;8.83;;;12.70;99.90;;;;;;4972663;28;20214;-81
2021/10/14 03:36:55;;;;;;;17.47;9.03;;;12.70;99.90;;;;;;4972277;28;20247;-81
2021/10/14 03:39:20;;;;;;;22.87;10.10;;;12.80;99.90;;;;;;4971887;28;20681;-81
2021/10/14 03:41:46;;;;;;;22.57;9.47;;;12.80;99.90;;;;;;4974594;28;20187;-81
2021/10/14 03:44:13;;;;;;;20.37;9.33;;;12.80;99.90;;;;;;4990289;28;20260;-81
2021/10/14 03:46:40;;;;;;;19.57;8.87;;;12.80;99.90;;;;;;4959965;28;20186;-81
2021/10/14 03:49:06;;;;;;;17.30;9.10;;;12.80;99.90;;;;;;4969036;28;20237;-80
2021/10/14 03:51:32;;;;;;;16.53;8.20;;;12.80;99.90;;;;;;4973395;28;20186;-81
2021/10/14 03:53:58;;;;;;;21.23;9.70;;;12.80;99.90;;;;;;4985321;28;20193;-80
2021/10/14 03:56:24;;;;;;;22.17;9.40;;;12.80;99.90;;;;;;4988165;28;20182;-80
2021/10/14 03:58:50;;;;;;;17.40;8.70;;;12.80;99.90;;;;;;4956054;28;20186;-79
2021/10/14 04:01:16;;;;;;;21.93;9.20;;;12.80;99.90;;;;;;4968106;28;20608;-80
2021/10/14 04:03:42;;;;;;;19.60;8.50;;;12.80;99.90;;;;;;4976062;28;20662;-80
2021/10/14 04:06:08;;;;;;;22.10;9.23;;;12.80;99.90;;;;;;4987584;28;20268;-80
2021/10/14 04:08:33;;;;;;;20.10;8.40;;;12.80;99.90;;;;;;4973071;28;20293;-80
2021/10/14 04:10:59;;;;;;;20.23;8.37;;;12.90;99.90;;;;;;4976526;28;20175;-79
2021/10/14 04:13:25;;;;;;;18.37;8.47;;;12.90;99.90;;;;;;4966500;28;20194;-82
2021/10/14 04:15:51;;;;;;;19.03;9.40;;;13.00;99.90;;;;;;4991234;28;20183;-80
2021/10/14 04:18:16;;;;;;;21.70;8.10;;;12.90;99.90;;;;;;4970842;28;20266;-81
2021/10/14 04:20:42;;;;;;;14.70;7.50;;;12.80;99.90;;;;;;4955852;28;20266;-81
2021/10/14 04:23:08;;;;;;;18.60;8.37;;;12.70;99.90;;;;;;4957543;28;20261;-80
2021/10/14 04:25:34;;;;;;;19.30;8.80;;;12.70;99.90;;;;;;4975024;28;20190;-80
2021/10/14 04:28:01;;;;;;;21.70;8.23;;;12.70;99.90;;;;;;4973430;28;20222;-80
2021/10/14 04:30:27;;;;;;;18.73;8.67;;;12.80;99.90;;;;;;4959790;28;20179;-81
2021/10/14 04:32:53;;;;;;;20.00;8.63;;;12.80;99.90;;;;;;4971765;28;20556;-81
2021/10/14 04:35:20;;;;;;;19.43;8.10;;;12.90;99.90;;;;;;4958128;28;20301;-81
2021/10/14 04:37:46;;;;;;;15.93;7.47;;;13.00;99.90;;;;;;4974314;28;20213;-82
2021/10/14 04:40:12;;;;;;;17.37;7.87;;;12.90;99.90;;;;;;4988697;28;20194;-81
2021/10/14 04:42:37;;;;;;;14.27;7.23;;;12.90;99.90;;;;;;4988794;28;20186;-81
2021/10/14 04:45:04;;;;;;;18.33;7.70;;;12.90;99.90;;;;;;4988656;28;20250;-81
2021/10/14 04:47:30;;;;;;;16.77;7.60;;;12.90;99.90;;;;;;4971504;28;20211;-82
2021/10/14 04:49:55;;;;;;;22.80;7.83;;;13.00;99.90;;;;;;4959207;28;20194;-83
2021/10/14 04:52:21;;;;;;;16.97;7.37;;;13.00;99.90;;;;;;4960012;28;20187;-82
2021/10/14 04:54:47;;;;;;;16.77;7.40;;;13.00;99.90;;;;;;4968786;28;20270;-82
2021/10/14 04:57:12;;;;;;;16.57;7.10;;;13.00;99.90;;;;;;4971348;28;20253;-82
2021/10/14 04:59:38;;;;;;;19.07;7.03;;;13.00;99.90;;;;;;4971735;28;20194;-83
2021/10/14 05:02:04;;;;;;;18.37;6.60;;;12.90;99.90;;;;;;4969406;28;20191;-82
2021/10/14 05:04:29;;;;;;;15.63;6.83;;;12.90;99.90;;;;;;4971711;28;20201;-83
2021/10/14 05:06:57;;;;;;;14.43;6.33;;;13.00;99.90;;;;;;4958959;28;20274;-83
2021/10/14 05:09:22;;;;;;;13.30;6.73;;;13.00;99.90;;;;;;4954160;28;20229;-82
2021/10/14 05:11:48;;;;;;;15.87;6.63;;;13.00;99.90;;;;;;4973592;28;20210;-82
2021/10/14 05:14:14;;;;;;;14.20;6.70;;;13.00;99.90;;;;;;4959357;28;20191;-83
2021/10/14 05:16:40;;;;;;;13.40;6.60;;;13.00;99.90;;;;;;4959431;28;20190;-83
2021/10/14 05:19:05;;;;;;;18.33;7.03;;;13.00;99.90;;;;;;4956177;28;20648;-83
2021/10/14 05:21:31;;;;;;;16.10;6.67;;;13.00;99.90;;;;;;4976953;28;20183;-83
2021/10/14 05:24:01;;;;;;;15.77;7.03;;;12.90;99.90;;;;;;4984397;28;20662;-82
2021/10/14 05:26:28;;;;;;;17.60;6.87;;;12.90;99.90;;;;;;4974972;28;20198;-82
2021/10/14 05:28:55;;;;;;;14.40;6.73;;;12.90;99.90;;;;;;4978529;28;20207;-82
2021/10/14 05:31:21;;;;;;;19.27;6.77;;;12.80;99.90;;;;;;4976428;28;20707;-82
2021/10/14 05:33:48;;;;;;;18.23;7.20;;;12.70;99.90;;;;;;4964827;28;20218;-82
2021/10/14 05:36:14;;;;;;;18.85;7.68;;;12.80;99.90;;;;;;4962267;28;20577;-82
2021/10/14 05:38:41;;;;;;;13.80;7.00;;;12.50;99.90;;;;;;4955067;28;20342;-82
2021/10/14 05:41:06;;;;;;;15.07;7.23;;;12.60;99.90;;;;;;4957316;28;20211;-82
2021/10/14 05:43:32;;;;;;;15.70;7.27;;;12.50;99.90;;;;;;4960815;28;20186;-82
2021/10/14 05:45:58;;;;;;;14.60;6.43;;;12.40;99.90;;;;;;4974629;28;20219;-80
2021/10/14 05:48:23;;;;;;;17.77;7.83;;;12.30;99.90;;;;;;4962260;28;20680;-82
2021/10/14 05:50:49;;;;;;;16.10;7.40;;;12.30;99.90;;;;;;4989754;28;20201;-80
2021/10/14 05:53:15;;;;;;;15.87;6.60;;;12.30;99.90;;;;;;4968586;28;20190;-80
2021/10/14 05:55:41;;;;;;;19.00;7.20;;;12.20;99.90;;;;;;4974139;28;20186;-80
2021/10/14 05:58:06;;;;;;;20.73;7.53;;;12.10;99.90;;;;;;4988833;28;20205;-80
2021/10/14 06:00:32;;;;;;;18.17;7.87;;;12.00;99.90;;;;;;4977149;28;20213;-80
2021/10/14 06:02:58;;;;;;;17.90;7.47;;;12.00;99.90;;;;;;4972280;28;20269;-80
2021/10/14 06:05:24;;;;;;;16.93;7.50;;;12.00;99.90;;;;;;4958628;28;20537;-81
2021/10/14 06:07:49;;;;;;;15.93;7.47;;;11.90;99.90;;;;;;4959698;28;20206;-80
2021/10/14 06:10:16;;;;;;;18.77;6.70;;;11.90;99.90;;;;;;4970993;28;20179;-80
2021/10/14 06:12:42;;;;;;;21.30;7.73;;;12.00;99.90;;;;;;4973705;28;20529;-80
2021/10/14 06:15:08;;;;;;;19.13;7.60;;;12.00;99.90;;;;;;4960124;28;20186;-80
2021/10/14 06:17:34;;;;;;;15.23;6.60;;;12.10;99.90;;;;;;4989888;28;20190;-80
2021/10/14 06:20:00;;;;;;;15.77;6.93;;;12.00;99.90;;;;;;4976044;28;20191;-80
2021/10/14 06:22:26;;;;;;;18.50;7.57;;;12.10;99.90;;;;;;4986243;28;20196;-80
2021/10/14 06:24:52;;;;;;;14.27;6.70;;;12.20;99.90;;;;;;4956059;28;20572;-80
2021/10/14 06:27:18;;;;;;;18.27;6.67;;;12.20;99.90;;;;;;4989699;28;20214;-81
2021/10/14 06:29:44;;;;;;;18.43;7.47;;;12.30;99.90;;;;;;4959840;28;20177;-81
2021/10/14 06:32:10;;;;;;;18.00;7.43;;;12.30;99.90;;;;;;4959029;28;20179;-81
2021/10/14 06:34:36;;;;;;;16.43;7.67;;;12.30;99.90;;;;;;4958627;28;20210;-81
2021/10/14 06:37:29;;;;;;;16.33;6.93;;;12.20;99.90;;;;;;5102808;27;20576;-87
2021/10/14 06:39:55;;;;;;;16.33;7.07;;;12.20;99.90;;;;;;5067800;28;20176;-87
2021/10/14 06:42:21;;;;;;;18.67;7.83;;;12.10;99.90;;;;;;5052612;28;20205;-87
2021/10/14 06:44:46;;;;;;;19.93;7.50;;;12.10;99.90;;;;;;5087823;28;20187;-88
2021/10/14 06:47:12;;;;;;;16.57;6.93;;;12.10;99.90;;;;;;5071558;28;20188;-88
2021/10/14 06:49:38;;;;;;;16.40;7.60;;;12.10;99.90;;;;;;5069926;28;20232;-88
2021/10/14 06:52:03;;;;;;;15.57;7.43;;;12.10;99.90;;;;;;5072685;28;20226;-87
2021/10/14 06:54:29;;;;;;;14.57;6.80;;;12.30;99.90;;;;;;5035026;28;20639;-87
2021/10/14 06:56:55;;;;;;;15.73;6.33;;;13.20;99.90;;;;;;5045785;28;20222;-87
2021/10/14 06:59:21;;;;;;;16.70;6.50;;;14.30;99.90;;;;;;5049891;28;20189;-87
2021/10/14 07:01:46;;;;;;;15.33;5.33;;;15.40;99.90;;;;;;5059669;28;20173;-88
2021/10/14 07:04:12;;;;;;;15.23;5.63;;;16.40;99.90;;;;;;5037404;28;20194;-89
2021/10/14 07:06:38;;;;;;;14.17;5.47;;;17.10;99.90;;;;;;5060858;28;20181;-86
2021/10/14 07:09:04;;;;;;;13.97;5.43;;;17.30;99.90;;;;;;5062196;28;20189;-88
2021/10/14 07:11:32;;;;;;;13.67;5.33;;;17.00;99.90;;;;;;5052526;28;20201;-87
2021/10/14 07:13:58;;;;;;;15.93;5.77;;;16.50;99.90;;;;;;5057438;28;20707;-87
2021/10/14 07:16:25;;;;;;;15.60;7.07;;;16.10;99.90;;;;;;5047630;28;20204;-86
2021/10/14 07:18:51;;;;;;;13.87;5.40;;;15.70;99.90;;;;;;5032053;28;20176;-87
2021/10/14 07:21:17;;;;;;;10.77;5.40;;;15.40;99.90;;;;;;5047840;28;20730;-84
2021/10/14 07:23:42;;;;;;;14.37;5.63;;;15.00;99.90;;;;;;5049715;28;20553;-89
2021/10/14 07:26:08;;;;;;;15.27;6.40;;;14.80;99.90;;;;;;5031097;28;20254;-89
2021/10/14 07:28:34;;;;;;;16.80;6.17;;;14.60;99.90;;;;;;5033011;28;20286;-88
2021/10/14 07:30:59;;;;;;;15.40;6.30;;;14.50;99.90;;;;;;5031124;28;20195;-86
2021/10/14 07:33:25;;;;;;;18.30;6.13;;;14.40;99.90;;;;;;5034660;28;20191;-85
2021/10/14 07:35:51;;;;;;;17.93;5.83;;;14.30;99.90;;;;;;5043476;28;20226;-85
2021/10/14 07:38:17;;;;;;;14.17;5.30;;;14.20;99.90;;;;;;5034096;28;20363;-87
2021/10/14 07:40:43;;;;;;;16.33;6.27;;;14.20;99.90;;;;;;5064061;28;20186;-85
2021/10/14 07:43:12;;;;;;;16.17;5.77;;;14.40;99.90;;;;;;5081499;28;20180;-85
2021/10/14 07:45:39;;;;;;;19.03;6.10;;;14.50;99.90;;;;;;5061272;28;20202;-84
2021/10/14 07:48:06;;;;;;;16.07;6.40;;;14.60;99.90;;;;;;5039180;28;20187;-85
2021/10/14 07:50:32;;;;;;;18.57;6.23;;;14.50;99.90;;;;;;5034183;28;20190;-86
2021/10/14 07:52:57;;;;;;;15.27;6.50;;;14.60;99.90;;;;;;5032971;28;20198;-87
2021/10/14 07:55:23;;;;;;;14.80;5.93;;;14.60;99.90;;;;;;5035738;28;20195;-87
2021/10/14 07:57:49;;;;;;;14.93;6.40;;;14.60;99.90;;;;;;5033857;28;20640;-87
2021/10/14 08:00:15;;;;;;;15.47;6.43;;;14.70;99.90;;;;;;5021867;28;20207;-86
2021/10/14 08:02:40;;;;;;;12.47;5.90;;;14.70;99.90;;;;;;5048971;28;20183;-85
2021/10/14 08:05:06;;;;;;;16.20;7.13;;;14.80;99.90;;;;;;5050907;28;20193;-87
2021/10/14 08:07:32;;;;;;;15.37;6.27;;;14.80;99.90;;;;;;5052828;28;20190;-87
2021/10/14 08:10:00;;;;;;;19.70;6.17;;;14.90;99.90;;;;;;5032409;28;20524;-86
2021/10/14 08:12:26;;;;;;;16.83;6.17;;;14.90;99.90;;;;;;5035439;28;20196;-87
2021/10/14 08:14:53;;;;;;;14.80;6.37;;;15.10;99.90;;;;;;5012975;28;20237;-87
2021/10/14 08:17:19;;;;;;;16.27;6.60;;;15.20;99.90;;;;;;5034151;28;20219;-86
2021/10/14 08:19:45;;;;;;;17.57;7.30;;;15.20;99.90;;;;;;5034418;28;20235;-87
2021/10/14 08:22:11;;;;;;;16.27;6.57;;;15.20;99.90;;;;;;5017819;28;20193;-87
2021/10/14 08:24:38;;;;;;;14.60;6.60;;;15.30;99.90;;;;;;5019001;28;20196;-87
2021/10/14 08:27:04;;;;;;;17.30;7.03;;;15.20;99.90;;;;;;5017064;28;20307;-87
2021/10/14 08:29:30;;;;;;;15.27;6.53;;;15.30;99.90;;;;;;5036751;28;20286;-87
2021/10/14 08:31:57;;;;;;;18.70;6.17;;;15.40;99.90;;;;;;5034259;28;20280;-86
2021/10/14 08:34:23;;;;;;;15.23;6.23;;;15.40;99.90;;;;;;5034824;28;20219;-87
2021/10/14 08:36:49;;;;;;;18.40;6.80;;;15.50;99.90;;;;;;5051114;28;20223;-85
2021/10/14 08:39:15;;;;;;;18.50;6.43;;;15.60;99.90;;;;;;5038761;28;20190;-87
2021/10/14 08:41:44;;;;;;;18.57;6.40;;;15.80;99.90;;;;;;5009362;28;20185;-87
2021/10/14 08:44:13;;;;;;;15.83;6.03;;;15.90;99.90;;;;;;5034560;28;20181;-87
2021/10/14 08:46:41;;;;;;;14.30;5.90;;;16.00;99.90;;;;;;5040280;28;20181;-86
2021/10/14 08:49:08;;;;;;;15.93;5.70;;;16.20;99.90;;;;;;5032928;28;20189;-87
2021/10/14 08:51:35;;;;;;;13.33;5.87;;;16.30;99.90;;;;;;5031234;28;20211;-88
2021/10/14 08:54:01;;;;;;;12.60;5.57;;;16.20;99.90;;;;;;5035948;28;20639;-85
2021/10/14 08:56:28;;;;;;;15.20;5.73;;;16.20;99.90;;;;;;5035260;28;20299;-87
2021/10/14 08:58:54;;;;;;;14.27;5.90;;;16.30;99.90;;;;;;5018428;28;20674;-87
2021/10/14 09:01:20;;;;;;;14.20;5.90;;;16.40;99.90;;;;;;5050857;28;20197;-86
2021/10/14 09:03:49;;;;;;;15.00;5.97;;;16.40;99.90;;;;;;5019797;28;20217;-87
2021/10/14 09:06:16;;;;;;;17.97;6.60;;;16.50;99.90;;;;;;5018061;28;20197;-86
2021/10/14 09:08:48;;;;;;;13.70;6.43;;;16.50;99.90;;;;;;5052167;28;20708;-87
2021/10/14 09:11:27;;;;;;;15.37;6.17;;;16.50;99.90;;;;;;5033317;28;20227;-86
2021/10/14 09:14:03;;;;;;;14.77;6.40;;;16.40;99.90;;;;;;5039402;28;20259;-87
2021/10/14 09:16:33;;;;;;;14.87;5.80;;;16.40;99.90;;;;;;5025557;28;20214;-87
2021/10/14 09:19:13;;;;;;;14.83;6.60;;;16.20;99.90;;;;;;5032545;28;20276;-86
2021/10/14 09:21:42;;;;;;;16.57;6.77;;;16.30;99.90;;;;;;5017653;28;20659;-86
2021/10/14 09:24:28;;;;;;;21.13;6.70;;;16.00;99.90;;;;;;5035985;28;20196;-87
2021/10/14 09:26:55;;;;;;;16.83;6.63;;;16.10;99.90;;;;;;5018549;28;20223;-87
2021/10/14 09:29:23;;;;;;;16.30;6.53;;;16.10;99.90;;;;;;5033984;28;20189;-88
2021/10/14 09:32:18;;;;;;;14.53;6.20;;;16.10;99.90;;;;;;5020414;28;20180;-86
2021/10/14 09:34:49;;;;;;;18.07;6.53;;;16.20;99.90;;;;;;5043234;28;20221;-87
2021/10/14 09:37:17;;;;;;;17.17;6.40;;;16.30;99.90;;;;;;5034624;28;20282;-87
2021/10/14 09:40:14;;;;;;;17.43;6.37;;;16.30;99.90;;;;;;5033302;28;20189;-86
2021/10/14 09:42:52;;;;;;;18.83;7.13;;;16.40;99.90;;;;;;5034932;28;20268;-86
2021/10/14 09:45:19;;;;;;;18.60;7.70;;;16.40;99.90;;;;;;5018200;28;20208;-85
2021/10/14 09:48:08;;;;;;;16.37;6.93;;;16.50;99.90;;;;;;5047788;28;20181;-87
2021/10/14 09:50:40;;;;;;;15.20;7.17;;;16.50;99.90;;;;;;5042839;28;20209;-86
2021/10/14 09:53:09;;;;;;;14.13;6.77;;;16.50;99.90;;;;;;5048411;28;20187;-86
2021/10/14 09:55:35;;;;;;;17.33;7.30;;;16.60;99.90;;;;;;5035010;28;20212;-86
2021/10/14 09:58:02;;;;;;;16.00;6.93;;;16.50;99.90;;;;;;5031640;28;20272;-87
2021/10/14 10:00:29;;;;;;;16.37;7.20;;;16.50;99.90;;;;;;5065083;28;20173;-87
2021/10/14 10:02:55;;;;;;;16.90;6.97;;;16.50;99.90;;;;;;5017691;28;20178;-87
2021/10/14 10:05:23;;;;;;;18.30;6.70;;;16.50;99.90;;;;;;5014924;28;20271;-86
2021/10/14 10:07:51;;;;;;;16.50;7.07;;;16.50;99.90;;;;;;5032219;28;20230;-87
2021/10/14 10:10:21;;;;;;;16.97;6.90;;;16.60;99.90;;;;;;5016781;28;20568;-87
2021/10/14 10:12:49;;;;;;;15.93;7.97;;;16.70;99.90;;;;;;5048898;28;20247;-86
2021/10/14 10:15:15;;;;;;;15.47;7.03;;;16.70;99.90;;;;;;5031018;28;20185;-86
2021/10/14 10:17:42;;;;;;;17.23;7.63;;;16.70;99.90;;;;;;5048204;28;20189;-85
2021/10/14 10:20:10;;;;;;;14.90;7.33;;;16.90;99.90;;;;;;5032003;28;20186;-86
2021/10/14 10:22:36;;;;;;;14.90;7.37;;;17.10;99.90;;;;;;5015056;28;20185;-86
2021/10/14 10:25:24;;;;;;;18.27;7.80;;;17.20;99.90;;;;;;5032749;28;20200;-85
2021/10/14 10:27:51;;;;;;;14.40;8.00;;;17.10;99.90;;;;;;5020960;28;20202;-86
2021/10/14 10:30:27;;;;;;;16.97;7.90;;;17.00;99.90;;;;;;5032602;28;20190;-85
2021/10/14 10:32:53;;;;;;;17.43;8.37;;;16.90;99.90;;;;;;5017506;28;20185;-86
2021/10/14 10:35:37;;;;;;;16.23;8.13;;;16.90;99.90;;;;;;5052290;28;20245;-87
2021/10/14 10:38:26;;;;;;;18.33;8.13;;;16.90;99.90;;;;;;5034612;28;20594;-87
2021/10/14 10:40:55;;;;;;;17.10;8.23;;;17.00;99.90;;;;;;5058967;28;20179;-86
2021/10/14 10:43:26;;;;;;;15.97;9.13;;;17.00;99.90;;;;;;5015606;28;20193;-86
2021/10/14 10:46:05;;;;;;;15.27;8.40;;;17.00;99.90;;;;;;5047195;28;20188;-86
2021/10/14 10:48:39;;;;;;;18.63;8.47;;;16.70;99.90;;;;;;5064033;28;20204;-87
2021/10/14 10:51:25;;;;;;;17.20;8.17;;;16.70;99.90;;;;;;5027667;28;20210;-86
2021/10/14 10:53:52;;;;;;;16.60;8.30;;;16.60;99.90;;;;;;5043430;28;20643;-87
2021/10/14 10:56:37;;;;;;;16.37;8.27;;;16.50;99.90;;;;;;5048724;28;20339;-86
2021/10/14 10:59:04;;;;;;;16.20;8.10;;;16.50;99.90;;;;;;5031644;28;20542;-87
2021/10/14 11:01:29;;;;;;;17.23;8.00;;;16.50;99.90;;;;;;5032096;28;20184;-87
2021/10/14 11:04:00;;;;;;;15.17;7.80;;;16.60;99.90;;;;;;5031102;28;20216;-87
2021/10/14 11:06:29;;;;;;;18.80;7.87;;;16.70;99.90;;;;;;5032517;28;20675;-88
2021/10/14 11:09:15;;;;;;;17.17;7.70;;;16.70;99.90;;;;;;5047881;28;20634;-86
2021/10/14 11:11:41;;;;;;;14.43;7.00;;;16.90;99.90;;;;;;5035216;28;20199;-86
2021/10/14 11:14:07;;;;;;;15.43;7.43;;;16.80;99.90;;;;;;5033089;28;20186;-87
2021/10/14 11:16:33;;;;;;;16.53;7.20;;;16.90;99.90;;;;;;5031304;28;20263;-88
2021/10/14 11:19:01;;;;;;;14.30;7.43;;;16.80;99.90;;;;;;5016009;28;20252;-87
2021/10/14 11:21:28;;;;;;;15.03;7.20;;;16.90;99.90;;;;;;5011714;28;20174;-88
2021/10/14 11:23:56;;;;;;;17.13;7.80;;;17.00;99.90;;;;;;5018139;28;20193;-85
2021/10/14 11:26:30;;;;;;;18.20;7.17;;;17.10;99.90;;;;;;5067147;28;20655;-86
2021/10/14 11:29:09;;;;;;;15.93;6.77;;;17.10;99.90;;;;;;5035139;28;20187;-87
2021/10/14 11:31:41;;;;;;;15.67;7.47;;;17.20;99.90;;;;;;5052778;28;20187;-86
2021/10/14 11:34:17;;;;;;;17.10;7.03;;;17.20;99.90;;;;;;5068477;28;20194;-86
2021/10/14 11:36:56;;;;;;;15.10;6.77;;;17.10;99.90;;;;;;5037134;28;20230;-87
2021/10/14 11:39:24;;;;;;;16.83;7.57;;;17.20;99.90;;;;;;5019598;28;20251;-87
2021/10/14 11:41:56;;;;;;;16.23;6.93;;;17.20;99.90;;;;;;5021003;28;20180;-87
2021/10/14 11:44:26;;;;;;;15.47;7.07;;;17.10;99.90;;;;;;5051075;28;20187;-87
2021/10/14 11:46:52;;;;;;;14.87;6.67;;;17.20;99.90;;;;;;5036521;28;20194;-87
2021/10/14 11:49:18;;;;;;;14.80;6.47;;;17.20;99.90;;;;;;5033407;28;20177;-87
2021/10/14 11:51:45;;;;;;;16.73;6.63;;;17.30;99.90;;;;;;5036431;28;20205;-87
2021/10/14 11:54:17;;;;;;;16.67;6.60;;;17.40;99.90;;;;;;5035752;28;20238;-87
2021/10/14 11:56:54;;;;;;;13.93;6.67;;;17.40;99.90;;;;;;5049447;28;20214;-86
2021/10/14 11:59:24;;;;;;;17.37;6.30;;;17.40;99.90;;;;;;5036748;28;20182;-88
2021/10/14 12:01:53;;;;;;;19.43;6.70;;;17.40;99.90;;;;;;5035506;28;20221;-87
2021/10/14 12:04:29;;;;;;;14.27;6.43;;;17.40;99.90;;;;;;5024354;28;20679;-87
2021/10/14 12:06:56;;;;;;;12.47;6.33;;;17.50;99.90;;;;;;5036736;28;20194;-85
2021/10/14 12:09:23;;;;;;;14.90;6.27;;;17.50;99.90;;;;;;5039478;28;20191;-87
2021/10/14 12:11:48;;;;;;;14.87;6.13;;;17.50;99.90;;;;;;5018218;28;20191;-87
2021/10/14 12:14:24;;;;;;;12.73;6.60;;;17.50;99.90;;;;;;5037529;28;20246;-87
2021/10/14 12:17:13;;;;;;;16.83;6.80;;;17.50;99.90;;;;;;5034499;28;20721;-87
2021/10/14 12:19:49;;;;;;;17.93;6.90;;;17.50;99.90;;;;;;5048837;28;20184;-86
2021/10/14 12:22:18;;;;;;;13.73;6.10;;;17.60;99.90;;;;;;5050657;28;20186;-86
2021/10/14 12:25:11;;;;;;;16.00;6.67;;;17.50;99.90;;;;;;5033404;28;20646;-87
2021/10/14 12:27:57;;;;;;;17.73;6.90;;;17.60;99.90;;;;;;5035961;28;20190;-87
2021/10/14 12:30:40;;;;;;;15.03;6.63;;;17.70;99.90;;;;;;5018299;28;20182;-87
2021/10/14 12:33:11;;;;;;;13.37;7.17;;;17.80;99.90;;;;;;5037828;28;20266;-88
2021/10/14 12:35:50;;;;;;;13.60;6.90;;;17.90;99.90;;;;;;5050356;28;20238;-86
2021/10/14 12:38:16;;;;;;;17.13;6.60;;;17.80;99.90;;;;;;5034439;28;20666;-88